createdAt,value
2023-06-11T04:15:24.299Z,22.50
2023-06-11T04:16:24.392Z,22.50
2023-06-11T04:17:24.294Z,22.50
2023-06-11T04:18:24.243Z,22.50
2023-06-11T04:19:24.235Z,22.50
2023-06-11T04:20:24.304Z,22.50
2023-06-11T04:21:24.238Z,22.50
2023-06-11T04:22:24.248Z,22.50
2023-06-11T04:23:24.217Z,22.50
2023-06-11T04:24:24.288Z,22.50
2023-06-11T04:25:24.225Z,28.13
2023-06-11T04:26:24.195Z,28.13
2023-06-11T04:27:24.235Z,28.13
2023-06-11T04:28:24.198Z,28.13
2023-06-11T04:29:24.213Z,28.13
2023-06-11T04:30:24.227Z,28.13
2023-06-11T04:31:24.214Z,28.13
2023-06-11T04:32:24.244Z,28.13
2023-06-11T04:33:24.171Z,28.13
2023-06-11T04:34:24.225Z,28.13
2023-06-11T04:35:24.213Z,28.13
2023-06-11T04:36:24.172Z,28.13
2023-06-11T04:37:24.169Z,28.13
2023-06-11T04:38:24.168Z,28.13
2023-06-11T04:39:24.171Z,28.13
2023-06-11T04:40:24.185Z,28.13
2023-06-11T04:41:24.192Z,33.75
2023-06-11T04:42:24.171Z,33.75
2023-06-11T04:43:24.156Z,33.75
2023-06-11T04:44:24.162Z,33.75
2023-06-11T04:45:24.170Z,33.75
2023-06-11T04:46:24.222Z,33.75
2023-06-11T04:47:24.224Z,33.75
2023-06-11T04:48:24.182Z,33.75
2023-06-11T04:49:24.143Z,33.75
2023-06-11T04:50:24.146Z,33.75
2023-06-11T04:51:24.173Z,33.75
2023-06-11T04:52:24.139Z,33.75
2023-06-11T04:53:24.211Z,33.75
2023-06-11T04:54:24.163Z,33.75
2023-06-11T04:55:24.144Z,33.75
2023-06-11T04:56:24.158Z,39.38
2023-06-11T04:57:24.137Z,39.38
2023-06-11T04:58:24.234Z,39.38
2023-06-11T04:59:24.158Z,39.38
2023-06-11T05:00:24.126Z,39.38
2023-06-11T05:01:24.184Z,39.38
2023-06-11T05:02:24.287Z,45.00
2023-06-11T05:03:24.141Z,45.00
2023-06-11T05:04:24.177Z,50.63
2023-06-11T05:05:24.259Z,50.63
2023-06-11T05:06:24.167Z,61.88
2023-06-11T05:07:24.152Z,61.88
2023-06-11T05:08:24.141Z,67.50
2023-06-11T05:09:24.152Z,67.50
2023-06-11T05:10:24.124Z,67.50
2023-06-11T05:11:24.132Z,73.13
2023-06-11T05:12:24.130Z,73.13
2023-06-11T05:13:24.162Z,73.13
2023-06-11T05:14:24.137Z,78.75
2023-06-11T05:15:24.124Z,78.75
2023-06-11T05:16:24.200Z,78.75
2023-06-11T05:17:24.146Z,78.75
2023-06-11T05:18:24.135Z,78.75
2023-06-11T05:19:24.148Z,78.75
2023-06-11T05:20:24.126Z,78.75
2023-06-11T05:21:24.145Z,84.38
2023-06-11T05:22:24.119Z,84.38
2023-06-11T05:23:24.110Z,84.38
2023-06-11T05:24:24.164Z,84.38
2023-06-11T05:25:24.117Z,84.38
2023-06-11T05:26:24.097Z,84.38
2023-06-11T05:27:24.104Z,84.38
2023-06-11T05:28:24.131Z,84.38
2023-06-11T05:29:24.126Z,90.00
2023-06-11T05:30:24.096Z,90.00
2023-06-11T05:31:24.127Z,90.00
2023-06-11T05:32:24.213Z,90.00
2023-06-11T05:33:24.112Z,90.00
2023-06-11T05:34:24.130Z,90.00
2023-06-11T05:35:24.135Z,90.00
2023-06-11T05:36:24.098Z,90.00
2023-06-11T05:37:24.087Z,90.00
2023-06-11T05:38:24.120Z,95.63
2023-06-11T05:39:24.091Z,95.63
2023-06-11T05:40:24.093Z,95.63
2023-06-11T05:41:24.091Z,95.63
2023-06-11T05:42:24.184Z,95.63
2023-06-11T05:43:24.110Z,95.63
2023-06-11T05:44:24.086Z,95.63
2023-06-11T05:45:24.099Z,95.63
2023-06-11T05:46:24.158Z,95.63
2023-06-11T05:47:24.293Z,95.63
2023-06-11T05:48:24.199Z,95.63
2023-06-11T05:49:24.091Z,101.25
2023-06-11T05:50:24.086Z,101.25
2023-06-11T05:51:24.198Z,101.25
2023-06-11T05:52:24.084Z,101.25
2023-06-11T05:53:24.108Z,101.25
2023-06-11T05:54:24.096Z,101.25
2023-06-11T05:55:24.076Z,101.25
2023-06-11T05:56:24.104Z,101.25
2023-06-11T05:57:24.080Z,101.25
2023-06-11T05:58:24.082Z,106.88
2023-06-11T05:59:24.080Z,106.88
2023-06-11T06:00:24.080Z,106.88
2023-06-11T06:01:24.094Z,106.88
2023-06-11T06:02:24.225Z,106.88
2023-06-11T06:03:24.328Z,106.88
2023-06-11T06:04:24.151Z,106.88
2023-06-11T06:05:24.108Z,106.88
2023-06-11T06:06:24.100Z,106.88
2023-06-11T06:07:24.094Z,112.50
2023-06-11T06:08:24.090Z,112.50
2023-06-11T06:09:24.069Z,112.50
2023-06-11T06:10:24.106Z,112.50
2023-06-11T06:11:24.097Z,112.50
2023-06-11T06:12:24.070Z,112.50
2023-06-11T06:13:24.155Z,112.50
2023-06-11T06:14:24.085Z,112.50
2023-06-11T06:15:24.097Z,118.13
2023-06-11T06:16:26.717Z,118.13
2023-06-11T06:17:24.331Z,118.13
2023-06-11T06:18:24.113Z,118.13
2023-06-11T06:19:24.088Z,118.13
2023-06-11T06:20:24.101Z,118.13
2023-06-11T06:21:24.075Z,118.13
2023-06-11T06:22:24.113Z,118.13
2023-06-11T06:23:24.091Z,123.75
2023-06-11T06:24:24.222Z,123.75
2023-06-11T06:25:24.066Z,123.75
2023-06-11T06:26:24.112Z,123.75
2023-06-11T06:27:24.104Z,123.75
2023-06-11T06:28:24.089Z,123.75
2023-06-11T06:29:24.121Z,123.75
2023-06-11T06:30:24.105Z,123.75
2023-06-11T06:31:24.465Z,123.75
2023-06-11T06:32:24.129Z,129.38
2023-06-11T06:33:24.127Z,129.38
2023-06-11T06:34:24.128Z,129.38
2023-06-11T06:35:24.139Z,129.38
2023-06-11T06:36:24.108Z,129.38
2023-06-11T06:37:24.116Z,129.38
2023-06-11T06:38:24.100Z,129.38
2023-06-11T06:39:24.186Z,129.38
2023-06-11T06:40:24.272Z,129.38
2023-06-11T06:41:24.118Z,129.38
2023-06-11T06:42:24.111Z,129.38
2023-06-11T06:43:24.077Z,129.38
2023-06-11T06:44:24.079Z,129.38
2023-06-11T06:45:24.086Z,129.38
2023-06-11T06:46:24.131Z,129.38
2023-06-11T06:47:24.221Z,129.38
2023-06-11T06:48:24.200Z,129.38
2023-06-11T06:49:24.102Z,135.00
2023-06-11T06:50:24.085Z,135.00
2023-06-11T06:51:24.142Z,135.00
2023-06-11T06:52:24.086Z,135.00
2023-06-11T06:53:24.086Z,135.00
2023-06-11T06:54:24.087Z,135.00
2023-06-11T06:55:24.104Z,135.00
2023-06-11T06:56:24.107Z,135.00
2023-06-11T06:57:24.123Z,135.00
2023-06-11T06:58:24.088Z,135.00
2023-06-11T06:59:24.096Z,135.00
2023-06-11T07:00:24.096Z,135.00
2023-06-11T07:01:24.223Z,135.00
2023-06-11T07:02:24.163Z,135.00
2023-06-11T07:03:24.123Z,135.00
2023-06-11T07:04:24.121Z,135.00
2023-06-11T07:05:24.160Z,135.00
2023-06-11T07:06:24.139Z,135.00
2023-06-11T07:07:24.111Z,135.00
2023-06-11T07:08:24.151Z,135.00
2023-06-11T07:09:24.121Z,135.00
2023-06-11T07:10:24.103Z,135.00
2023-06-11T07:11:24.156Z,135.00
2023-06-11T07:12:24.140Z,135.00
2023-06-11T07:13:24.122Z,135.00
2023-06-11T07:14:24.177Z,135.00
2023-06-11T07:15:24.142Z,135.00
2023-06-11T07:16:24.161Z,135.00
2023-06-11T07:17:24.137Z,135.00
2023-06-11T07:18:24.114Z,135.00
2023-06-11T07:19:24.200Z,135.00
2023-06-11T07:20:24.210Z,135.00
2023-06-11T07:21:24.138Z,135.00
2023-06-11T07:22:24.123Z,135.00
2023-06-11T07:23:24.119Z,135.00
2023-06-11T07:24:24.288Z,135.00
2023-06-11T07:25:24.182Z,135.00
2023-06-11T07:27:31.027Z,135.00
2023-06-11T10:29:59.306Z,151.88
2023-06-11T10:30:59.273Z,151.88
2023-06-11T10:31:59.277Z,151.88
2023-06-11T10:32:59.543Z,157.50
2023-06-11T10:33:59.466Z,157.50
2023-06-11T10:34:59.387Z,157.50
2023-06-11T10:35:59.297Z,163.13
2023-06-11T10:36:59.289Z,163.13
2023-06-11T10:37:59.346Z,163.13
2023-06-11T10:38:59.320Z,168.75
2023-06-11T10:39:59.305Z,168.75
2023-06-11T10:40:59.313Z,168.75
2023-06-11T10:41:59.328Z,174.38
2023-06-11T10:42:59.344Z,174.38
2023-06-11T10:43:59.346Z,174.38
2023-06-11T10:44:59.351Z,180.00
2023-06-11T10:45:59.358Z,174.38
2023-06-11T10:46:59.362Z,180.00
2023-06-11T10:47:59.453Z,180.00
2023-06-11T10:48:59.378Z,180.00
2023-06-11T10:49:59.388Z,180.00
2023-06-11T10:50:59.380Z,185.63
2023-06-11T10:51:59.393Z,185.63
2023-06-11T10:52:59.426Z,185.63
2023-06-11T10:53:59.431Z,191.25
2023-06-11T10:54:59.392Z,191.25
2023-06-11T10:55:59.403Z,196.88
2023-06-11T10:56:59.408Z,196.88
2023-06-11T10:57:59.437Z,196.88
2023-06-11T10:58:59.449Z,196.88
2023-06-11T10:59:59.441Z,196.88
2023-06-11T11:00:59.412Z,202.50
2023-06-11T11:01:59.528Z,202.50
2023-06-11T11:03:00.737Z,202.50
2023-06-11T11:03:59.506Z,202.50
2023-06-11T11:04:59.457Z,202.50
2023-06-11T11:05:59.459Z,208.13
2023-06-11T11:06:59.492Z,208.13
2023-06-11T11:07:59.452Z,208.13
2023-06-11T11:08:59.469Z,208.13
2023-06-11T11:09:59.496Z,208.13
2023-06-11T11:10:59.467Z,213.75
2023-06-11T11:11:59.490Z,213.75
2023-06-11T11:12:59.478Z,213.75
2023-06-11T11:14:01.340Z,213.75
2023-06-11T11:14:59.497Z,213.75
2023-06-11T11:15:59.515Z,213.75
2023-06-11T11:16:59.734Z,219.38
2023-06-11T11:17:59.669Z,219.38
2023-06-11T11:18:59.525Z,225.00
2023-06-11T11:19:59.530Z,225.00
2023-06-11T11:20:59.554Z,230.63
2023-06-11T11:21:59.536Z,230.63
2023-06-11T11:22:59.597Z,236.25
2023-06-11T11:23:59.590Z,236.25
2023-06-11T11:24:59.551Z,241.88
2023-06-11T11:25:59.566Z,241.88
2023-06-11T11:26:59.613Z,241.88
2023-06-11T11:27:59.590Z,247.50
2023-06-11T11:28:59.608Z,253.13
2023-06-11T11:30:03.177Z,258.75
2023-06-11T11:30:59.678Z,258.75
2023-06-11T11:31:59.639Z,258.75
2023-06-11T11:32:59.661Z,264.38
2023-06-11T11:33:59.654Z,264.38
2023-06-11T11:34:59.631Z,270.00
2023-06-11T11:36:02.216Z,275.63
2023-06-11T11:36:59.649Z,286.88
2023-06-11T11:37:59.683Z,292.50
2023-06-11T11:38:59.686Z,298.13
2023-06-11T11:39:59.674Z,303.75
2023-06-11T11:40:59.707Z,309.38
2023-06-11T11:42:02.020Z,247.50
2023-06-11T11:42:59.726Z,281.25
2023-06-11T11:43:59.737Z,241.88
2023-06-11T11:44:59.738Z,320.63
2023-06-11T11:45:59.775Z,326.25
2023-06-11T11:46:59.742Z,331.88
2023-06-11T11:48:03.182Z,337.50
2023-06-11T11:48:59.753Z,343.13
2023-06-11T11:49:59.786Z,343.13
2023-06-11T11:50:59.766Z,343.13
2023-06-11T11:51:59.774Z,348.75
2023-06-11T11:52:59.801Z,348.75
2023-06-11T11:54:03.319Z,315.00
2023-06-11T11:54:59.804Z,337.50
2023-06-11T11:56:06.014Z,360.00
2023-06-11T11:56:59.820Z,365.63
2023-06-11T11:57:59.817Z,365.63
2023-06-11T11:58:59.853Z,371.25
2023-06-11T11:59:59.867Z,371.25
2023-06-11T12:00:59.847Z,371.25
2023-06-11T12:01:59.861Z,343.13
2023-06-11T12:02:59.963Z,303.75
2023-06-11T12:03:59.999Z,315.00
2023-06-11T12:04:59.879Z,281.25
2023-06-11T12:06:00.025Z,264.38
2023-06-11T12:06:59.910Z,281.25
2023-06-11T12:07:59.919Z,337.50
2023-06-11T12:08:59.975Z,331.88
2023-06-11T12:10:03.435Z,281.25
2023-06-11T12:10:59.950Z,410.63
2023-06-11T12:12:05.570Z,326.25
2023-06-11T12:12:59.981Z,275.63
2023-06-11T12:14:00.001Z,365.63
2023-06-11T12:14:59.973Z,360.00
2023-06-11T12:16:03.881Z,343.13
2023-06-11T12:17:00.039Z,393.75
2023-06-11T12:18:00.054Z,393.75
2023-06-11T12:19:14.454Z,371.25
2023-06-11T12:20:00.014Z,388.13
2023-06-11T12:21:00.052Z,376.88
2023-06-11T12:22:00.101Z,393.75
2023-06-11T12:23:00.042Z,399.38
2023-06-11T12:24:00.170Z,405.00
2023-06-11T12:25:00.102Z,410.63
2023-06-11T12:26:00.098Z,410.63
2023-06-11T12:27:00.134Z,416.25
2023-06-11T12:28:00.142Z,416.25
2023-06-11T12:29:00.118Z,421.88
2023-06-11T12:30:00.217Z,399.38
2023-06-11T12:31:00.167Z,433.13
2023-06-11T12:32:00.250Z,376.88
2023-06-11T12:33:00.281Z,444.38
2023-06-11T12:34:00.154Z,450.00
2023-06-11T12:35:00.182Z,450.00
2023-06-11T12:36:00.194Z,444.38
2023-06-11T12:37:00.172Z,433.13
2023-06-11T12:38:00.220Z,438.75
2023-06-11T12:39:00.198Z,472.50
2023-06-11T12:40:00.245Z,444.38
2023-06-11T12:41:00.234Z,298.13
2023-06-11T12:42:00.247Z,348.75
2023-06-11T12:43:00.689Z,371.25
2023-06-11T12:44:00.287Z,331.88
2023-06-11T12:45:00.421Z,371.25
2023-06-11T12:46:00.335Z,500.63
2023-06-11T12:47:00.278Z,523.13
2023-06-11T12:48:00.372Z,483.75
2023-06-11T12:49:00.291Z,545.63
2023-06-11T12:50:00.320Z,500.63
2023-06-11T12:51:00.330Z,551.25
2023-06-11T12:52:00.381Z,528.75
2023-06-11T12:53:00.336Z,551.25
2023-06-11T12:54:00.390Z,360.00
2023-06-11T12:55:00.389Z,489.38
2023-06-11T12:56:00.473Z,472.50
2023-06-11T12:57:00.386Z,562.50
2023-06-11T12:58:00.442Z,590.63
2023-06-11T12:59:00.427Z,607.50
2023-06-11T13:00:00.414Z,618.75
2023-06-11T13:01:00.481Z,630.00
2023-06-11T13:02:00.466Z,641.25
2023-06-11T13:03:00.481Z,658.13
2023-06-11T13:04:00.485Z,675.00
2023-06-11T13:05:00.667Z,686.25
2023-06-11T13:06:00.511Z,686.25
2023-06-11T13:07:00.517Z,646.88
2023-06-11T13:08:00.524Z,483.75
2023-06-11T13:09:00.516Z,562.50
2023-06-11T13:10:00.560Z,680.63
2023-06-11T13:11:00.547Z,742.50
2023-06-11T13:12:00.612Z,759.38
2023-06-11T13:13:00.552Z,765.00
2023-06-11T13:14:00.561Z,765.00
2023-06-11T13:15:00.660Z,781.88
2023-06-11T13:16:00.661Z,793.13
2023-06-11T13:17:00.653Z,804.38
2023-06-11T13:18:00.738Z,815.63
2023-06-11T13:19:00.649Z,821.25
2023-06-11T13:20:00.641Z,826.88
2023-06-11T13:21:00.692Z,843.75
2023-06-11T13:22:00.718Z,832.50
2023-06-11T13:23:00.663Z,815.63
2023-06-11T13:24:00.737Z,832.50
2023-06-11T13:25:00.716Z,866.25
2023-06-11T13:26:00.713Z,877.50
2023-06-11T13:27:00.706Z,883.13
2023-06-11T13:28:00.737Z,883.13
2023-06-11T13:29:00.756Z,883.13
2023-06-11T13:30:00.763Z,883.13
2023-06-11T13:31:00.789Z,883.13
2023-06-11T13:32:00.776Z,894.38
2023-06-11T13:33:00.877Z,911.25
2023-06-11T13:34:00.789Z,916.88
2023-06-11T13:35:00.855Z,916.88
2023-06-11T13:36:00.923Z,922.50
2023-06-11T13:38:33.385Z,916.88
2023-06-11T13:39:33.456Z,922.50
2023-06-11T13:40:33.405Z,922.50
2023-06-11T13:41:33.437Z,928.13
2023-06-11T13:42:33.448Z,928.13
2023-06-11T13:43:33.440Z,928.13
2023-06-11T13:44:33.496Z,922.50
2023-06-11T13:45:33.489Z,933.75
2023-06-11T13:46:33.517Z,933.75
2023-06-11T13:47:33.560Z,933.75
2023-06-11T13:48:33.517Z,933.75
2023-06-11T13:49:33.527Z,933.75
2023-06-11T13:50:33.563Z,933.75
2023-06-11T13:51:33.545Z,933.75
2023-06-11T13:52:33.596Z,933.75
2023-06-11T13:53:33.594Z,933.75
2023-06-11T13:54:33.578Z,916.88
2023-06-11T13:55:33.587Z,905.63
2023-06-11T13:56:33.657Z,900.00
2023-06-11T13:57:33.653Z,888.75
2023-06-11T13:58:33.634Z,905.63
2023-06-11T13:59:33.643Z,894.38
2023-06-11T14:00:33.708Z,900.00
2023-06-11T14:01:33.951Z,905.63
2023-06-11T14:02:33.762Z,900.00
2023-06-11T14:03:33.809Z,894.38
2023-06-11T14:04:33.727Z,883.13
2023-06-11T14:05:33.764Z,871.88
2023-06-11T14:06:33.787Z,849.38
2023-06-11T14:07:33.803Z,556.88
2023-06-11T14:08:33.760Z,393.75
2023-06-11T14:09:33.814Z,663.75
2023-06-11T14:10:33.825Z,855.00
2023-06-11T14:11:33.817Z,860.63
2023-06-11T14:12:33.817Z,860.63
2023-06-11T14:13:33.872Z,866.25
2023-06-11T14:14:33.875Z,860.63
2023-06-11T14:15:33.878Z,849.38
2023-06-11T14:16:33.938Z,843.75
2023-06-11T14:17:33.921Z,849.38
2023-06-11T14:18:33.919Z,849.38
2023-06-11T14:19:33.902Z,815.63
2023-06-11T14:20:33.929Z,804.38
2023-06-11T14:21:33.945Z,838.13
2023-06-11T14:22:33.945Z,849.38
2023-06-11T14:23:34.046Z,855.00
2023-06-11T14:24:34.035Z,860.63
2023-06-11T14:25:33.992Z,866.25
2023-06-11T14:26:33.997Z,860.63
2023-06-11T14:27:34.041Z,466.88
2023-06-11T14:28:34.026Z,348.75
2023-06-11T14:29:34.061Z,337.50
2023-06-11T14:30:34.053Z,365.63
2023-06-11T14:31:34.138Z,540.00
2023-06-11T14:32:34.364Z,787.50
2023-06-11T14:33:34.081Z,770.63
2023-06-11T14:34:34.129Z,759.38
2023-06-11T14:35:34.093Z,753.75
2023-06-11T14:36:34.101Z,736.88
2023-06-11T14:37:34.119Z,731.25
2023-06-11T14:38:34.169Z,731.25
2023-06-11T14:39:34.195Z,736.88
2023-06-11T14:40:34.157Z,742.50
2023-06-11T14:41:34.158Z,736.88
2023-06-11T14:42:34.202Z,731.25
2023-06-11T14:43:34.205Z,731.25
2023-06-11T14:44:34.258Z,725.63
2023-06-11T14:45:34.246Z,714.38
2023-06-11T14:46:34.262Z,697.50
2023-06-11T14:47:34.414Z,703.13
2023-06-11T14:48:34.236Z,708.75
2023-06-11T14:49:34.281Z,714.38
2023-06-11T14:50:34.265Z,731.25
2023-06-11T14:51:34.284Z,781.88
2023-06-11T14:52:34.308Z,961.88
2023-06-11T14:53:34.352Z,1192.50
2023-06-11T14:54:34.315Z,1406.25
2023-06-11T14:55:34.333Z,1507.50
2023-06-11T14:56:34.363Z,1620.00
2023-06-11T14:57:34.340Z,1766.25
2023-06-11T14:59:34.375Z,1918.13
2023-06-11T15:00:34.433Z,1968.75
2023-06-11T15:01:34.548Z,1980.00
2023-06-11T15:02:34.509Z,1991.25
2023-06-11T15:03:34.474Z,2002.50
2023-06-11T15:04:34.459Z,1963.13
2023-06-11T15:05:34.482Z,1923.75
2023-06-11T15:06:34.488Z,1890.00
2023-06-11T15:07:35.988Z,1816.88
2023-06-11T15:08:34.472Z,1788.75
2023-06-11T15:09:34.497Z,1845.00
2023-06-11T15:10:34.520Z,1912.50
2023-06-11T15:11:34.511Z,1878.75
2023-06-11T15:12:34.526Z,1861.88
2023-06-11T15:13:34.541Z,1850.63
2023-06-11T15:14:34.554Z,1794.38
2023-06-11T15:15:34.570Z,1681.88
2023-06-11T15:16:34.629Z,1608.75
2023-06-11T15:17:34.622Z,1563.75
2023-06-11T15:18:34.595Z,1485.00
2023-06-11T15:19:34.664Z,1406.25
2023-06-11T15:20:34.632Z,1344.38
2023-06-11T15:21:34.684Z,1316.25
2023-06-11T15:22:34.661Z,1316.25
2023-06-11T15:23:34.739Z,1327.50
2023-06-11T15:24:34.680Z,1271.25
2023-06-11T15:25:34.699Z,871.88
2023-06-11T15:26:34.711Z,399.38
2023-06-11T15:27:34.705Z,298.13
2023-06-11T15:28:34.895Z,275.63
2023-06-11T15:29:34.738Z,253.13
2023-06-11T15:30:34.722Z,241.88
2023-06-11T15:31:34.781Z,225.00
2023-06-11T15:32:34.936Z,213.75
2023-06-11T15:33:34.830Z,208.13
2023-06-11T15:34:34.767Z,196.88
2023-06-11T15:35:34.797Z,191.25
2023-06-11T15:36:34.804Z,185.63
2023-06-11T15:37:34.805Z,180.00
2023-06-11T15:38:34.830Z,180.00
2023-06-11T15:39:34.823Z,174.38
2023-06-11T15:40:34.832Z,174.38
2023-06-11T15:41:34.904Z,168.75
2023-06-11T15:42:34.893Z,168.75
2023-06-11T15:43:34.842Z,168.75
2023-06-11T15:44:34.880Z,163.13
2023-06-11T15:45:34.888Z,163.13
2023-06-11T15:46:34.936Z,163.13
2023-06-11T15:47:35.126Z,157.50
2023-06-11T15:48:34.970Z,157.50
2023-06-11T15:49:34.912Z,157.50
2023-06-11T15:50:34.931Z,151.88
2023-06-11T15:51:34.962Z,151.88
2023-06-11T15:52:34.915Z,151.88
2023-06-11T15:53:34.924Z,146.25
2023-06-11T15:54:34.992Z,146.25
2023-06-11T15:55:34.993Z,146.25
2023-06-11T15:56:34.954Z,146.25
2023-06-11T15:57:34.974Z,140.63
2023-06-11T15:58:34.972Z,140.63
2023-06-11T15:59:35.032Z,140.63
2023-06-11T16:00:35.022Z,140.63
2023-06-11T16:01:35.064Z,135.00
2023-06-11T16:02:34.999Z,135.00
2023-06-11T16:03:35.123Z,135.00
2023-06-11T16:04:35.089Z,135.00
2023-06-11T16:05:35.072Z,129.38
2023-06-11T16:06:35.018Z,129.38
2023-06-11T16:07:35.099Z,129.38
2023-06-11T16:08:35.028Z,129.38
2023-06-11T16:09:35.101Z,129.38
2023-06-11T16:10:35.078Z,123.75
2023-06-11T16:11:35.069Z,123.75
2023-06-11T16:12:35.093Z,123.75
2023-06-11T16:13:35.096Z,123.75
2023-06-11T16:14:35.119Z,123.75
2023-06-11T16:15:35.260Z,118.13
2023-06-11T16:16:35.287Z,118.13
2023-06-11T16:29:14.039Z,106.88
2023-06-11T16:30:14.343Z,101.25
2023-06-11T16:31:14.019Z,101.25
2023-06-11T16:32:13.980Z,101.25
2023-06-11T16:33:14.058Z,101.25
2023-06-11T16:34:14.053Z,101.25
2023-06-11T16:35:14.444Z,95.63
2023-06-11T16:36:14.015Z,95.63
2023-06-11T16:37:14.004Z,95.63
2023-06-11T16:38:14.008Z,95.63
2023-06-11T16:39:26.729Z,95.63
2023-06-11T16:40:14.028Z,90.00
2023-06-11T16:41:14.036Z,90.00
2023-06-11T16:42:14.070Z,90.00
2023-06-11T16:43:14.032Z,90.00
2023-06-11T16:44:14.020Z,90.00
2023-06-11T16:45:14.318Z,90.00
2023-06-11T16:46:14.074Z,90.00
2023-06-11T16:47:14.097Z,84.38
2023-06-11T16:48:14.110Z,84.38
2023-06-11T16:49:14.126Z,84.38
2023-06-11T16:50:14.403Z,84.38
2023-06-11T16:51:14.096Z,84.38
2023-06-11T16:52:14.088Z,84.38
2023-06-11T16:53:14.062Z,84.38
2023-06-11T16:54:16.540Z,78.75
2023-06-11T16:55:14.474Z,78.75
2023-06-11T16:56:14.103Z,78.75
2023-06-11T16:57:14.090Z,78.75
2023-06-11T16:58:14.125Z,78.75
2023-06-11T16:59:14.107Z,78.75
2023-06-11T17:00:14.353Z,78.75
2023-06-11T17:01:14.184Z,73.13
2023-06-11T17:02:14.107Z,73.13
2023-06-11T17:03:14.163Z,73.13
2023-06-11T17:04:14.195Z,73.13
2023-06-11T17:05:14.152Z,73.13
2023-06-11T17:06:14.113Z,73.13
2023-06-11T17:07:14.117Z,73.13
2023-06-11T17:08:14.118Z,73.13
2023-06-11T17:09:14.242Z,73.13
2023-06-11T17:10:14.519Z,67.50
2023-06-11T17:11:14.144Z,67.50
2023-06-11T17:12:14.131Z,67.50
2023-06-11T17:13:14.140Z,67.50
2023-06-11T17:14:14.150Z,67.50
2023-06-11T17:15:14.264Z,67.50
2023-06-11T17:16:14.254Z,67.50
2023-06-11T17:17:14.191Z,67.50
2023-06-11T17:18:14.191Z,67.50
2023-06-11T17:19:14.158Z,67.50
2023-06-11T17:20:14.546Z,61.88
2023-06-11T17:21:14.196Z,61.88
2023-06-11T17:22:14.190Z,61.88
2023-06-11T17:23:14.171Z,61.88
2023-06-11T17:24:14.229Z,61.88
2023-06-11T17:25:14.581Z,61.88
2023-06-11T17:26:16.565Z,61.88
2023-06-11T17:27:14.171Z,61.88
2023-06-11T17:28:14.185Z,61.88
2023-06-11T17:29:14.208Z,61.88
2023-06-11T17:30:14.441Z,56.25
2023-06-11T17:31:14.272Z,56.25
2023-06-11T17:32:14.250Z,56.25
2023-06-11T17:33:14.317Z,56.25
2023-06-11T17:34:14.232Z,56.25
2023-06-11T17:35:14.375Z,56.25
2023-06-11T17:36:14.211Z,56.25
2023-06-11T17:37:14.215Z,56.25
2023-06-11T17:38:14.218Z,56.25
2023-06-11T17:39:14.264Z,56.25
2023-06-11T17:40:16.618Z,56.25
2023-06-11T17:41:14.222Z,50.63
2023-06-11T17:42:14.247Z,50.63
2023-06-11T17:43:14.251Z,50.63
2023-06-11T17:44:14.258Z,50.63
2023-06-11T17:45:14.226Z,50.63
2023-06-11T17:46:14.317Z,50.63
2023-06-11T17:47:14.249Z,50.63
2023-06-11T17:48:14.281Z,50.63
2023-06-11T17:49:14.288Z,50.63
2023-06-11T17:50:14.458Z,50.63
2023-06-11T17:51:14.837Z,50.63
2023-06-11T17:52:14.255Z,45.00
2023-06-11T17:53:14.277Z,45.00
2023-06-11T17:54:14.252Z,45.00
2023-06-11T17:55:14.533Z,45.00
2023-06-11T17:56:14.266Z,45.00
2023-06-11T17:57:14.291Z,45.00
2023-06-11T17:58:14.277Z,45.00
2023-06-11T17:59:14.270Z,45.00
2023-06-11T18:00:14.563Z,45.00
2023-06-11T18:01:14.368Z,45.00
2023-06-11T18:02:14.316Z,45.00
2023-06-11T18:03:14.322Z,39.38
2023-06-11T18:04:14.318Z,39.38
2023-06-11T18:05:14.576Z,39.38
2023-06-11T18:06:16.860Z,39.38
2023-06-11T18:07:14.290Z,39.38
2023-06-11T18:08:14.330Z,39.38
2023-06-11T18:09:14.303Z,39.38
2023-06-11T18:10:14.290Z,39.38
2023-06-11T18:11:14.305Z,39.38
2023-06-11T18:12:14.310Z,39.38
2023-06-11T18:13:14.317Z,39.38
2023-06-11T18:14:14.305Z,33.75
2023-06-11T18:15:31.346Z,33.75
2023-06-11T18:16:14.338Z,33.75
2023-06-11T18:17:14.324Z,33.75
2023-06-11T18:18:14.327Z,33.75
2023-06-11T18:19:14.357Z,33.75
2023-06-11T18:20:14.331Z,33.75
2023-06-11T18:21:14.343Z,33.75
2023-06-11T18:22:14.343Z,33.75
2023-06-11T18:23:14.364Z,33.75
2023-06-11T18:24:14.404Z,33.75
2023-06-11T18:25:14.669Z,33.75
2023-06-11T18:26:14.453Z,28.13
2023-06-11T18:27:14.401Z,28.13
2023-06-11T18:28:14.333Z,28.13
2023-06-11T18:29:14.344Z,28.13
2023-06-11T18:30:14.670Z,28.13
2023-06-11T18:31:14.357Z,28.13
2023-06-11T18:32:14.355Z,28.13
2023-06-11T18:33:14.416Z,28.13
2023-06-11T18:34:14.349Z,28.13
2023-06-11T18:35:14.358Z,28.13
2023-06-11T18:36:14.358Z,28.13
2023-06-11T18:37:14.438Z,28.13
2023-06-11T18:38:14.351Z,28.13
2023-06-11T18:39:14.357Z,22.50
2023-06-11T18:40:14.750Z,22.50
2023-06-11T18:41:14.370Z,22.50
2023-06-11T18:42:14.390Z,22.50
2023-06-11T18:43:14.376Z,22.50
2023-06-11T18:44:14.394Z,22.50
2023-06-11T18:45:14.387Z,22.50
2023-06-11T18:46:14.457Z,22.50
2023-06-11T18:47:14.407Z,22.50
2023-06-11T18:48:14.491Z,22.50
2023-06-11T18:49:14.426Z,22.50
2023-06-11T18:50:14.719Z,22.50
2023-06-11T18:51:14.376Z,16.88
2023-06-11T18:52:14.392Z,16.88
2023-06-11T18:53:14.478Z,16.88
2023-06-11T18:54:14.418Z,16.88
2023-06-11T18:55:14.406Z,16.88
2023-06-11T18:56:14.389Z,16.88
2023-06-11T18:57:14.397Z,16.88
2023-06-11T18:58:17.413Z,16.88
2023-06-11T18:59:14.436Z,16.88
2023-06-11T19:00:14.727Z,16.88
2023-06-11T19:01:14.442Z,16.88
2023-06-11T19:02:14.398Z,16.88
2023-06-11T19:03:14.482Z,11.25
2023-06-11T19:04:14.549Z,11.25
2023-06-11T19:05:14.474Z,11.25
2023-06-11T19:06:14.429Z,11.25
2023-06-11T19:07:14.432Z,11.25
2023-06-11T19:08:14.486Z,11.25
2023-06-11T19:09:14.440Z,11.25
2023-06-11T19:10:14.746Z,11.25
2023-06-11T19:11:14.443Z,11.25
2023-06-11T19:12:14.430Z,11.25
2023-06-11T19:13:14.445Z,11.25
2023-06-11T19:14:14.423Z,11.25
2023-06-11T19:15:14.457Z,11.25
2023-06-11T19:16:14.453Z,11.25
2023-06-11T19:17:14.514Z,5.63
2023-06-11T19:18:14.477Z,5.63
2023-06-11T19:19:14.431Z,5.63
2023-06-11T19:20:14.607Z,5.63
2023-06-11T19:21:14.478Z,5.63
2023-06-11T19:22:14.443Z,5.63
2023-06-11T19:23:14.472Z,5.63
2023-06-11T19:24:14.487Z,5.63
2023-06-11T19:25:14.467Z,5.63
2023-06-11T19:26:14.486Z,5.63
2023-06-11T19:27:14.504Z,5.63
2023-06-11T19:28:14.490Z,5.63
2023-06-11T19:29:14.468Z,5.63
2023-06-11T19:30:14.861Z,5.63
2023-06-11T19:31:14.574Z,5.63
2023-06-11T19:32:14.462Z,5.63
2023-06-11T19:33:14.464Z,5.63
2023-06-11T19:34:17.010Z,0.00
2023-06-11T19:35:14.500Z,0.00
2023-06-11T19:36:14.602Z,0.00
2023-06-11T19:37:14.493Z,0.00
2023-06-11T19:38:14.492Z,0.00
2023-06-11T19:39:14.467Z,0.00
2023-06-11T19:40:14.878Z,0.00
2023-06-11T19:41:15.819Z,0.00
2023-06-11T19:42:14.471Z,0.00
2023-06-11T19:43:14.472Z,0.00
2023-06-11T19:44:14.477Z,0.00
2023-06-11T19:45:14.503Z,0.00
2023-06-11T19:46:14.516Z,0.00
2023-06-11T19:47:14.517Z,0.00
2023-06-11T19:48:14.575Z,0.00
2023-06-11T19:49:14.515Z,0.00
2023-06-11T19:50:14.831Z,0.00
2023-06-11T19:51:14.508Z,0.00
2023-06-11T19:52:14.539Z,0.00
2023-06-11T19:53:14.513Z,0.00
2023-06-11T19:54:14.497Z,0.00
2023-06-11T19:55:14.561Z,0.00
2023-06-11T19:56:14.512Z,0.00
2023-06-11T19:57:14.544Z,0.00
2023-06-11T19:58:14.518Z,0.00
2023-06-11T19:59:15.186Z,0.00
2023-06-11T20:00:14.836Z,0.00
2023-06-11T20:01:14.502Z,0.00
2023-06-11T20:02:14.715Z,0.00
2023-06-11T20:03:14.588Z,0.00
2023-06-11T20:04:14.538Z,0.00
2023-06-11T20:05:14.610Z,0.00
2023-06-11T20:06:14.529Z,0.00
2023-06-11T20:07:14.521Z,0.00
2023-06-11T20:08:14.552Z,0.00
2023-06-11T20:09:14.519Z,0.00
2023-06-11T20:10:14.777Z,0.00